PWSweather.com
Personal Weather Stations
Station Observations
KVAGLENALL
West Henrico, Glen Allen, VA 23060-6503

West HenricoGlen Allen, VA 23060-6503

Lat: 37.6554, Lon: -77.5693

Elevation: 273

Station Type: Davis Vantage Pro II

www.glenallenweather.com

High Low Average
Temperature 59.3°F15.2°C 42.9°F6.1°C 52.2°F11.2°C
Dew Point 53.6°F12.0°C 35.2°F1.8°C 45.8°F7.7°C
Winds 8.0 mph 12.9 kmh Calm Calm 4.0 mph S6.4 kmh S
Wind Gusts 11.1 mph17.9 kmh -- 7.0 mph11.3 kmh
Humidity 94% 70% 79%
Pressure 30.08 in1018.6 mb 29.87 in1011.5 mb -
Precipitation 0.00 in0.0 mm - -
Hour Temp Dew Point Humidity Winds Wind Gusts Pressure Precip Precip Rate Daily Precip Total
12:00 AM 50.4°F10.2°C 41.0°F5.0°C 70% 8.0 mph SW12.9 kmh SW 8.1 mph13.0 kmh 30.04 in1017.3 mb 0.00 in0.0 mm 0.00 in0.0 mm 0.00 in0.0 mm
12:30 AM 50.8°F10.4°C 41.3°F5.2°C 70% 6.0 mph SW9.7 kmh SW 10.1 mph16.3 kmh 30.03 in1016.9 mb 0.00 in0.0 mm 0.00 in0.0 mm 0.00 in0.0 mm
01:30 AM 49.9°F9.9°C 41.6°F5.3°C 73% 4.0 mph S6.4 kmh S 7.1 mph11.4 kmh 30.01 in1016.3 mb 0.00 in0.0 mm 0.00 in0.0 mm 0.00 in0.0 mm
02:30 AM 49.9°F9.9°C 41.9°F5.5°C 74% 6.0 mph SSW9.7 kmh SSW 8.1 mph13.0 kmh 30.00 in1015.9 mb 0.00 in0.0 mm 0.00 in0.0 mm 0.00 in0.0 mm
03:30 AM 50.9°F10.5°C 42.9°F6.1°C 74% 7.0 mph SSW11.3 kmh SSW 7.1 mph11.4 kmh 29.97 in1014.9 mb 0.00 in0.0 mm 0.00 in0.0 mm 0.00 in0.0 mm
04:30 AM 50.3°F10.2°C 43.0°F6.1°C 76% 3.0 mph SSW4.8 kmh SSW 5.1 mph8.2 kmh 29.96 in1014.6 mb 0.00 in0.0 mm 0.00 in0.0 mm 0.00 in0.0 mm
05:30 AM 49.1°F9.5°C 43.3°F6.3°C 80% 2.0 mph SSW3.2 kmh SSW 5.1 mph8.2 kmh 29.94 in1013.9 mb 0.00 in0.0 mm 0.00 in0.0 mm 0.00 in0.0 mm
06:30 AM 51.0°F10.6°C 44.4°F6.9°C 78% 4.0 mph SSW6.4 kmh SSW 9.1 mph14.6 kmh 29.95 in1014.2 mb 0.00 in0.0 mm 0.00 in0.0 mm 0.00 in0.0 mm
07:30 AM 51.2°F10.7°C 44.9°F7.2°C 79% 5.0 mph SW8.0 kmh SW 5.1 mph8.2 kmh 29.93 in1013.5 mb 0.00 in0.0 mm 0.00 in0.0 mm 0.00 in0.0 mm
08:30 AM 53.3°F11.8°C 46.3°F7.9°C 77% 7.0 mph SW11.3 kmh SW 8.1 mph13.0 kmh 29.94 in1013.9 mb 0.00 in0.0 mm 0.00 in0.0 mm 0.00 in0.0 mm
09:30 AM 52.9°F11.6°C 48.2°F9.0°C 84% 5.0 mph SSW8.0 kmh SSW 10.1 mph16.3 kmh 29.92 in1013.2 mb 0.00 in0.0 mm 0.00 in0.0 mm 0.00 in0.0 mm
10:30 AM 55.2°F12.9°C 49.5°F9.7°C 81% 4.0 mph SW6.4 kmh SW 11.1 mph17.9 kmh 29.94 in1013.9 mb 0.00 in0.0 mm 0.00 in0.0 mm 0.00 in0.0 mm
11:30 AM 55.9°F13.3°C 50.1°F10.1°C 81% 4.0 mph SSW6.4 kmh SSW 8.1 mph13.0 kmh 29.90 in1012.5 mb 0.01 in0.3 mm 0.00 in0.0 mm 0.01 in0.3 mm
12:30 PM 57.4°F14.1°C 51.3°F10.7°C 80% 6.0 mph SSW9.7 kmh SSW 9.1 mph14.6 kmh 29.87 in1011.5 mb 0.01 in0.3 mm 0.00 in0.0 mm 0.01 in0.3 mm
01:30 PM 59.1°F15.1°C 53.6°F12.0°C 82% 6.0 mph SSW9.7 kmh SSW 10.1 mph16.3 kmh 29.87 in1011.5 mb 0.02 in0.5 mm 0.00 in0.0 mm 0.02 in0.5 mm
02:30 PM 59.3°F15.2°C 53.1°F11.7°C 80% 3.0 mph WSW4.8 kmh WSW 7.1 mph11.4 kmh 29.87 in1011.5 mb 0.00 in0.0 mm 0.00 in0.0 mm 0.02 in0.5 mm
03:30 PM 59.3°F15.2°C 52.8°F11.6°C 79% 3.0 mph WSW4.8 kmh WSW 8.1 mph13.0 kmh 29.89 in1012.2 mb 0.00 in0.0 mm 0.00 in0.0 mm 0.02 in0.5 mm
04:30 PM 58.0°F14.4°C 52.2°F11.2°C 81% 2.0 mph SW3.2 kmh SW 4.0 mph6.4 kmh 29.90 in1012.5 mb 0.00 in0.0 mm 0.00 in0.0 mm 0.02 in0.5 mm
05:30 PM 55.3°F12.9°C 51.2°F10.7°C 86% 1.0 mph SW1.6 kmh SW 2.0 mph3.2 kmh 29.93 in1013.5 mb 0.00 in0.0 mm 0.00 in0.0 mm 0.02 in0.5 mm
06:30 PM 51.8°F11.0°C 49.2°F9.6°C 91% Calm Calm -- 29.95 in1014.2 mb 0.00 in0.0 mm 0.00 in0.0 mm 0.02 in0.5 mm
07:30 PM 48.9°F9.4°C 47.3°F8.5°C 94% Calm Calm -- 30.00 in1015.9 mb 0.00 in0.0 mm 0.00 in0.0 mm 0.02 in0.5 mm
08:30 PM 50.7°F10.4°C 46.0°F7.8°C 84% 4.0 mph N6.4 kmh N 9.1 mph14.6 kmh 30.02 in1016.6 mb 0.00 in0.0 mm 0.00 in0.0 mm 0.02 in0.5 mm
09:30 PM 47.5°F8.6°C 39.3°F4.1°C 73% 2.0 mph ENE3.2 kmh ENE 7.1 mph11.4 kmh 30.05 in1017.6 mb 0.00 in0.0 mm 0.00 in0.0 mm 0.02 in0.5 mm
10:30 PM 45.2°F7.3°C 36.8°F2.7°C 72% 6.0 mph NNE9.7 kmh NNE 8.1 mph13.0 kmh 30.07 in1018.3 mb 0.00 in0.0 mm 0.00 in0.0 mm 0.02 in0.5 mm
11:30 PM 42.9°F6.1°C 35.2°F1.8°C 74% 2.0 mph NNE3.2 kmh NNE 5.1 mph8.2 kmh 30.08 in1018.6 mb 0.00 in0.0 mm 0.00 in0.0 mm 0.02 in0.5 mm